Time;durP1;ratioP1;P1;durP2;ratioP2;P2;SDS_P1;SDS_P2;PMS_P1;PMS_P2;Temp;Humidity;BMP_temperature;BMP_pressure;BME280_temperature;BME280_humidity;BME280_pressure;Samples;Min_cycle;Max_cycle;Signal;HPM_P1;HPM_P2
2021/08/09 00:00:38;;;;;;;0.52;0.52;;;;;;;14.63;75.14;100776.81;4981503;28;20059;-84
2021/08/09 00:03:06;;;;;;;0.82;0.65;;;;;;;14.64;74.95;100778.56;4962301;28;20412;-87
2021/08/09 00:05:35;;;;;;;1.75;1.27;;;;;;;14.63;75.11;100775.03;4948802;28;20555;-83
2021/08/09 00:08:03;;;;;;;1.70;1.08;;;;;;;14.61;75.39;100774.19;4941880;28;20051;-86
2021/08/09 00:10:30;;;;;;;2.55;0.90;;;;;;;14.59;75.38;100769.84;4947795;28;20065;-84
2021/08/09 00:13:00;;;;;;;0.98;0.70;;;;;;;14.58;75.27;100771.63;4972505;28;20042;-85
2021/08/09 00:15:27;;;;;;;0.60;0.60;;;;;;;14.58;75.22;100773.41;4953339;28;20108;-85
2021/08/09 00:17:54;;;;;;;1.50;0.60;;;;;;;14.58;75.40;100763.75;4969370;28;20461;-83
2021/08/09 00:20:20;;;;;;;1.65;0.82;;;;;;;14.58;75.22;100774.28;4946970;28;20057;-86
2021/08/09 00:22:47;;;;;;;2.03;0.88;;;;;;;14.56;75.22;100773.44;4952147;28;20054;-85
2021/08/09 00:25:15;;;;;;;2.10;0.85;;;;;;;14.58;75.08;100768.16;4958463;28;20058;-86
2021/08/09 00:27:42;;;;;;;0.30;0.30;;;;;;;14.57;74.95;100767.25;4963621;28;20042;-84
2021/08/09 00:30:11;;;;;;;1.63;1.05;;;;;;;14.56;74.76;100769.03;4965521;28;20065;-83
2021/08/09 00:32:38;;;;;;;0.88;0.47;;;;;;;14.53;75.16;100770.88;4946851;28;20057;-83
2021/08/09 00:35:07;;;;;;;2.95;0.65;;;;;;;14.48;75.13;100764.84;4967348;28;20054;-83
2021/08/09 00:37:36;;;;;;;1.10;0.60;;;;;;;14.41;75.34;100765.91;4948782;28;20046;-83
2021/08/09 00:40:05;;;;;;;1.83;0.80;;;;;;;14.32;75.75;100774.88;4983876;28;21455;-82
2021/08/09 00:42:38;;;;;;;0.93;0.93;;;;;;;14.24;76.12;100769.78;4959829;28;20117;-86
2021/08/09 00:45:07;;;;;;;2.72;1.20;;;;;;;14.20;76.56;100771.63;4955396;28;20046;-82
2021/08/09 00:47:34;;;;;;;1.65;1.00;;;;;;;14.20;77.08;100770.75;4968343;28;20104;-81
2021/08/09 00:50:01;;;;;;;2.80;0.90;;;;;;;14.21;76.90;100765.47;4951113;28;20100;-84
2021/08/09 00:52:28;;;;;;;0.98;0.93;;;;;;;14.23;77.00;100776.81;4950495;28;20057;-85
2021/08/09 00:54:54;;;;;;;1.92;1.05;;;;;;;14.22;76.91;100769.81;4948682;28;20134;-86
2021/08/09 00:57:21;;;;;;;1.17;0.50;;;;;;;14.19;76.85;100772.50;4954520;28;20046;-84
2021/08/09 00:59:48;;;;;;;0.90;0.90;;;;;;;14.20;77.12;100781.28;4952263;28;20062;-84
2021/08/09 01:02:14;;;;;;;2.28;0.80;;;;;;;14.19;77.35;100790.09;4947666;28;20062;-84
2021/08/09 01:04:41;;;;;;;2.78;0.95;;;;;;;14.21;77.50;100785.66;4965063;28;20758;-84
2021/08/09 01:07:09;;;;;;;3.83;0.70;;;;;;;14.24;77.39;100788.22;4951815;28;20137;-84
2021/08/09 01:10:17;;;;;;;7.93;3.15;;;;;;;14.29;77.49;100788.09;4981987;28;20046;-87
2021/08/09 01:12:57;;;;;;;0.80;0.57;;;;;;;14.29;77.18;100796.00;4944788;28;20050;-84
2021/08/09 01:15:33;;;;;;;3.40;0.85;;;;;;;14.26;77.62;100791.66;4968763;28;20053;-87
2021/08/09 01:18:03;;;;;;;0.80;0.77;;;;;;;14.21;77.58;100802.31;4965034;28;20042;-88
2021/08/09 01:20:48;;;;;;;4.13;0.93;;;;;;;14.17;78.41;100800.66;4966338;28;20070;-85
2021/08/09 01:23:47;;;;;;;0.60;0.60;;;;;;;14.09;79.04;100799.94;4965828;28;20046;-84
2021/08/09 01:26:40;;;;;;;1.50;1.10;;;;;;;14.05;78.90;100806.16;4966024;28;20134;-87
2021/08/09 01:29:13;;;;;;;0.90;0.80;;;;;;;13.98;79.59;100787.00;4968452;28;20710;-85
2021/08/09 01:31:51;;;;;;;2.72;1.08;;;;;;;13.95;80.50;100791.47;4970148;28;20465;-86
2021/08/09 01:34:21;;;;;;;3.13;1.33;;;;;;;13.94;80.37;100797.66;4971073;28;20704;-85
2021/08/09 01:36:51;;;;;;;1.55;0.60;;;;;;;13.89;80.00;100795.09;4984228;28;20046;-86
2021/08/09 01:39:19;;;;;;;1.90;0.63;;;;;;;13.84;80.68;100789.06;4968241;28;20069;-85
2021/08/09 01:41:49;;;;;;;1.27;0.73;;;;;;;13.78;81.05;100795.31;4978886;28;20066;-87
2021/08/09 01:44:17;;;;;;;2.58;1.38;;;;;;;13.73;81.36;100799.81;4967014;28;20046;-85
2021/08/09 01:46:44;;;;;;;2.63;1.02;;;;;;;13.67;81.80;100805.19;4939914;28;20050;-85
2021/08/09 01:49:11;;;;;;;3.95;1.40;;;;;;;13.65;82.11;100806.97;4950134;28;20062;-85
2021/08/09 01:51:38;;;;;;;2.72;1.42;;;;;;;13.61;82.78;100800.03;4933848;28;20071;-87
2021/08/09 01:54:08;;;;;;;2.15;1.02;;;;;;;13.56;82.56;100801.00;4928666;28;20054;-86
2021/08/09 01:56:35;;;;;;;2.13;1.02;;;;;;;13.54;83.01;100804.53;4948264;28;20046;-83
2021/08/09 01:59:02;;;;;;;1.05;0.95;;;;;;;13.46;83.26;100807.31;4935548;28;20169;-86
2021/08/09 02:01:29;;;;;;;3.42;1.48;;;;;;;13.40;83.55;100805.69;4952048;28;20062;-84
2021/08/09 02:03:56;;;;;;;1.85;1.25;;;;;;;13.34;84.36;100810.16;4954009;28;20060;-88
2021/08/09 02:06:23;;;;;;;1.38;0.90;;;;;;;13.31;84.67;100811.06;4948307;28;20058;-88
2021/08/09 02:08:52;;;;;;;2.50;1.10;;;;;;;13.31;84.83;100813.69;4950995;28;20505;-87
2021/08/09 02:11:41;;;;;;;3.10;1.15;;;;;;;13.26;84.50;100810.28;4933616;28;23065;-83
2021/08/09 02:14:13;;;;;;;3.08;1.17;;;;;;;13.21;85.10;100812.97;4934538;28;20219;-86
2021/08/09 02:16:54;;;;;;;2.53;0.90;;;;;;;13.21;85.39;100805.09;4950704;28;20046;-85
2021/08/09 02:19:31;;;;;;;1.45;0.93;;;;;;;13.22;85.37;100805.97;4984282;28;20046;-84
2021/08/09 02:22:10;;;;;;;4.45;1.50;;;;;;;13.22;85.41;100812.09;4971381;28;20050;-86
2021/08/09 02:25:16;;;;;;;2.17;1.17;;;;;;;13.17;86.00;100806.03;4952232;28;20034;-83
2021/08/09 02:27:55;;;;;;;2.78;1.55;;;;;;;13.19;85.55;100811.28;4948305;28;20062;-84
2021/08/09 02:30:25;;;;;;;1.90;0.98;;;;;;;13.19;85.74;100806.00;4947803;28;20065;-84
2021/08/09 02:32:55;;;;;;;1.30;0.90;;;;;;;13.20;85.37;100821.75;4957145;28;20081;-84
2021/08/09 02:35:25;;;;;;;2.13;1.20;;;;;;;13.19;85.68;100821.78;4950226;28;20046;-87
2021/08/09 02:37:53;;;;;;;1.55;1.13;;;;;;;13.17;85.27;100819.19;4971900;28;20113;-85
2021/08/09 02:40:21;;;;;;;1.70;1.52;;;;;;;13.15;85.97;100823.59;4962005;28;20533;-88
2021/08/09 02:42:49;;;;;;;1.90;1.30;;;;;;;13.14;86.00;100821.88;4982538;28;20082;-88
2021/08/09 02:45:17;;;;;;;2.28;0.90;;;;;;;13.14;86.11;100824.50;4985058;28;20085;-85
2021/08/09 02:47:45;;;;;;;1.23;1.13;;;;;;;13.12;86.19;100830.69;4969092;28;20100;-83
2021/08/09 02:50:14;;;;;;;4.13;1.10;;;;;;;13.11;86.46;100826.31;4953619;28;20474;-85
2021/08/09 02:52:43;;;;;;;1.52;0.85;;;;;;;13.12;86.55;100830.69;4967773;28;20682;-84
2021/08/09 02:55:11;;;;;;;2.47;1.00;;;;;;;13.13;86.28;100828.03;4970469;28;20042;-87
2021/08/09 02:57:39;;;;;;;2.83;1.10;;;;;;;13.13;85.90;100832.38;4957963;28;20074;-85
2021/08/09 03:00:08;;;;;;;2.47;1.20;;;;;;;13.11;86.72;100826.31;4965921;28;20177;-86
2021/08/09 03:02:42;;;;;;;1.38;1.25;;;;;;;13.13;86.38;100825.41;4960227;28;20043;-86
2021/08/09 03:05:13;;;;;;;4.60;1.00;;;;;;;13.13;86.13;100837.66;4947281;28;20058;-86
2021/08/09 03:07:43;;;;;;;1.30;0.75;;;;;;;13.11;86.19;100837.69;4952647;28;20125;-86
2021/08/09 03:10:12;;;;;;;2.97;1.60;;;;;;;13.12;86.04;100835.94;4950348;28;20051;-86
2021/08/09 03:12:40;;;;;;;2.38;1.13;;;;;;;13.12;86.00;100839.41;4954608;28;20058;-86
2021/08/09 03:15:09;;;;;;;1.17;1.08;;;;;;;13.13;85.66;100837.66;4955891;28;20043;-86
2021/08/09 03:17:37;;;;;;;1.52;0.98;;;;;;;13.15;85.94;100830.63;4955240;28;20054;-87
2021/08/09 03:20:06;;;;;;;1.60;0.90;;;;;;;13.17;85.68;100828.84;4958030;28;20065;-84
2021/08/09 03:22:32;;;;;;;1.25;1.02;;;;;;;13.23;85.57;100839.22;4955301;28;20042;-85
2021/08/09 03:24:59;;;;;;;6.28;1.65;;;;;;;13.25;85.32;100834.84;4941596;28;20061;-88
2021/08/09 03:27:26;;;;;;;2.38;1.35;;;;;;;13.29;85.16;100833.03;4959475;28;20572;-84
2021/08/09 03:29:53;;;;;;;1.48;1.35;;;;;;;13.31;85.06;100842.63;4933864;28;20188;-87
2021/08/09 03:32:20;;;;;;;2.72;1.10;;;;;;;13.29;84.64;100840.91;4955857;28;20051;-85
2021/08/09 03:34:46;;;;;;;3.25;0.98;;;;;;;13.27;85.28;100842.69;4950396;28;20035;-85
2021/08/09 03:37:13;;;;;;;3.20;1.30;;;;;;;13.25;85.33;100840.09;4956118;28;20132;-83
2021/08/09 03:39:39;;;;;;;2.08;1.05;;;;;;;13.31;85.40;100847.00;4934612;28;20156;-86
2021/08/09 03:42:06;;;;;;;4.40;1.20;;;;;;;13.32;85.04;100849.59;4955199;28;20153;-86
2021/08/09 03:44:33;;;;;;;1.45;1.27;;;;;;;13.36;84.90;100848.69;4969616;28;20149;-83
2021/08/09 03:46:59;;;;;;;1.17;1.08;;;;;;;13.37;84.99;100853.03;4932468;28;20058;-83
2021/08/09 03:49:26;;;;;;;4.57;1.10;;;;;;;13.40;85.14;100849.50;4949827;28;20820;-85
2021/08/09 03:51:54;;;;;;;0.60;0.60;;;;;;;13.43;84.73;100859.97;4962939;28;20142;-82
2021/08/09 03:54:20;;;;;;;3.92;1.20;;;;;;;13.48;85.41;100846.72;4935482;28;20061;-85
2021/08/09 03:56:47;;;;;;;2.17;1.15;;;;;;;13.59;84.68;100854.44;4952388;28;20066;-83
2021/08/09 03:59:14;;;;;;;3.03;1.10;;;;;;;13.68;84.22;100847.22;4945031;28;20577;-84
2021/08/09 04:01:41;;;;;;;2.08;0.93;;;;;;;13.83;83.76;100853.97;4964392;28;20061;-85
2021/08/09 04:04:09;;;;;;;2.10;1.13;;;;;;;13.94;83.30;100864.28;4970326;28;20048;-82
2021/08/09 04:06:39;;;;;;;1.35;1.17;;;;;;;14.02;83.20;100866.78;4949072;28;20073;-83
2021/08/09 04:09:09;;;;;;;3.42;1.02;;;;;;;14.11;82.96;100865.72;4971954;28;20954;-85
2021/08/09 04:11:36;;;;;;;3.30;1.23;;;;;;;14.23;82.07;100871.59;4956232;28;20054;-85
2021/08/09 04:14:05;;;;;;;1.42;0.80;;;;;;;14.35;81.73;100873.13;4973173;28;20072;-84
2021/08/09 04:16:35;;;;;;;2.67;1.30;;;;;;;14.44;81.24;100876.44;4968917;28;20064;-87
2021/08/09 04:19:02;;;;;;;4.05;1.23;;;;;;;14.51;81.14;100864.88;4967474;28;20054;-87
2021/08/09 04:21:31;;;;;;;2.55;1.23;;;;;;;14.59;80.44;100869.97;4950411;28;20053;-85
2021/08/09 04:23:59;;;;;;;2.60;0.88;;;;;;;14.59;80.74;100870.84;4956180;28;20186;-84
2021/08/09 04:26:26;;;;;;;2.75;1.23;;;;;;;14.59;80.51;100876.13;4971840;28;20042;-82
2021/08/09 04:28:52;;;;;;;3.50;1.00;;;;;;;14.53;80.72;100877.09;4964520;28;20050;-84
2021/08/09 04:31:20;;;;;;;0.93;0.88;;;;;;;14.49;81.06;100875.44;4951470;28;20054;-82
2021/08/09 04:33:49;;;;;;;6.32;1.23;;;;;;;14.46;81.46;100878.16;4964233;28;20046;-85
2021/08/09 04:36:16;;;;;;;2.58;1.40;;;;;;;14.45;81.75;100876.41;4970076;28;20527;-86
2021/08/09 04:38:43;;;;;;;6.57;2.03;;;;;;;14.44;81.64;100876.44;4967435;28;20678;-83
2021/08/09 04:41:13;;;;;;;2.28;2.03;;;;;;;14.44;81.91;100873.81;4970372;28;20138;-84
2021/08/09 04:43:41;;;;;;;1.10;0.98;;;;;;;14.45;81.73;100879.03;4987019;28;20038;-87
2021/08/09 04:46:12;;;;;;;1.17;1.05;;;;;;;14.44;81.76;100877.31;4988791;28;20062;-86
2021/08/09 04:48:40;;;;;;;2.60;1.15;;;;;;;14.43;81.90;100883.50;4963072;28;20043;-86
2021/08/09 04:51:07;;;;;;;1.02;0.85;;;;;;;14.45;82.06;100881.69;4953158;28;20126;-84
2021/08/09 04:53:34;;;;;;;5.97;1.55;;;;;;;14.45;81.96;100875.56;4937337;28;20035;-83
2021/08/09 04:56:01;;;;;;;3.90;1.23;;;;;;;14.45;82.03;100878.19;4953259;28;20116;-83
2021/08/09 04:58:28;;;;;;;2.13;1.17;;;;;;;14.45;82.23;100875.56;4966233;28;20050;-86
2021/08/09 05:00:54;;;;;;;2.97;1.08;;;;;;;14.46;82.11;100877.31;4967183;28;20081;-83
2021/08/09 05:03:21;;;;;;;4.38;1.30;;;;;;;14.47;81.78;100882.53;4965320;28;20049;-86
2021/08/09 05:05:48;;;;;;;1.98;1.40;;;;;;;14.49;81.99;100875.44;4937070;28;20138;-87
2021/08/09 05:08:15;;;;;;;2.22;1.00;;;;;;;14.48;81.99;100871.06;4952170;28;20461;-83
2021/08/09 05:10:42;;;;;;;3.63;1.00;;;;;;;14.52;81.86;100879.78;4969791;28;20082;-84
2021/08/09 05:13:10;;;;;;;3.50;1.20;;;;;;;14.52;81.51;100871.88;4940550;28;20043;-84
2021/08/09 05:15:39;;;;;;;3.75;1.60;;;;;;;14.54;81.29;100873.56;4942756;28;21664;-84
2021/08/09 05:18:05;;;;;;;5.18;2.15;;;;;;;14.52;81.32;100870.13;4936488;28;20047;-86
2021/08/09 05:20:32;;;;;;;4.82;1.30;;;;;;;14.53;81.17;100863.94;4948688;28;20529;-84
2021/08/09 05:23:00;;;;;;;1.80;1.02;;;;;;;14.56;81.15;100873.53;4961215;28;20073;-86
2021/08/09 05:25:27;;;;;;;2.08;1.08;;;;;;;14.61;80.87;100873.44;4958946;28;20087;-85
2021/08/09 05:27:54;;;;;;;2.75;1.20;;;;;;;14.66;80.79;100871.63;4953391;28;20055;-87
2021/08/09 05:30:22;;;;;;;4.68;1.42;;;;;;;14.72;80.41;100884.66;4937960;28;20490;-83
2021/08/09 05:32:49;;;;;;;5.10;1.50;;;;;;;14.80;79.92;100876.59;4929892;28;20607;-85
2021/08/09 05:35:16;;;;;;;2.85;0.93;;;;;;;14.89;79.54;100885.13;4945749;28;20047;-87
2021/08/09 05:37:43;;;;;;;2.13;1.13;;;;;;;15.00;78.66;100886.66;4941391;28;20809;-83
2021/08/09 05:40:14;;;;;;;1.50;1.15;;;;;;;15.08;78.39;100895.22;4947470;28;20054;-82
2021/08/09 05:42:41;;;;;;;5.65;1.15;;;;;;;15.14;77.91;100889.81;4964191;28;20660;-86
2021/08/09 05:45:09;;;;;;;6.32;1.30;;;;;;;15.19;77.88;100892.34;4958401;28;20054;-84
2021/08/09 05:47:36;;;;;;;1.25;1.15;;;;;;;15.22;77.57;100893.13;4963519;28;20053;-85
2021/08/09 05:50:03;;;;;;;1.95;0.88;;;;;;;15.24;77.17;100895.75;4930061;28;20053;-84
2021/08/09 05:52:31;;;;;;;1.52;0.90;;;;;;;15.26;77.33;100896.56;4948155;28;20521;-83
2021/08/09 05:55:03;;;;;;;1.83;0.82;;;;;;;15.30;77.21;100897.34;4950731;28;20043;-84
2021/08/09 05:57:29;;;;;;;1.50;1.13;;;;;;;15.32;77.31;100895.56;4942158;28;20915;-84
2021/08/09 05:59:57;;;;;;;3.25;1.23;;;;;;;15.34;77.21;100893.72;4961687;28;20916;-86
2021/08/09 06:02:26;;;;;;;1.63;1.48;;;;;;;15.39;77.26;100891.84;4942803;28;20513;-84
2021/08/09 06:04:53;;;;;;;1.30;1.20;;;;;;;15.40;77.06;100896.22;4924377;28;20137;-83
2021/08/09 06:07:21;;;;;;;1.77;0.73;;;;;;;15.43;77.11;100888.22;4942619;28;20497;-85
2021/08/09 06:09:48;;;;;;;2.25;1.25;;;;;;;15.45;76.80;100889.06;4944949;28;20062;-86
2021/08/09 06:12:18;;;;;;;2.88;1.20;;;;;;;15.48;76.80;100888.13;4935235;28;20046;-82
2021/08/09 06:14:46;;;;;;;1.23;1.08;;;;;;;15.48;76.77;100888.13;4927439;28;20106;-82
2021/08/09 06:17:13;;;;;;;2.45;1.20;;;;;;;15.53;76.71;100883.59;4947332;28;20047;-84
2021/08/09 06:19:39;;;;;;;1.75;1.05;;;;;;;15.57;76.53;100898.44;4942104;28;20047;-83
2021/08/09 06:22:09;;;;;;;2.25;1.08;;;;;;;15.64;76.31;100902.63;4948445;28;20057;-85
2021/08/09 06:24:36;;;;;;;4.18;2.35;;;;;;;15.73;75.97;100912.09;4948298;28;20050;-87
2021/08/09 06:27:07;;;;;;;4.22;1.17;;;;;;;15.78;75.68;100923.38;4922871;28;20055;-84
2021/08/09 06:29:35;;;;;;;1.40;1.30;;;;;;;15.83;75.44;100903.06;4946871;28;20046;-85
2021/08/09 06:32:02;;;;;;;1.00;0.90;;;;;;;15.90;75.29;100906.38;4926385;28;20130;-86
2021/08/09 06:34:28;;;;;;;4.15;1.23;;;;;;;15.99;75.10;100911.41;4934301;28;20049;-83
2021/08/09 06:36:56;;;;;;;1.23;0.88;;;;;;;16.04;74.77;100908.66;4930202;28;20675;-84
2021/08/09 06:39:26;;;;;;;3.50;0.95;;;;;;;15.99;74.87;100915.84;4948624;28;20064;-85
2021/08/09 06:41:53;;;;;;;1.40;1.30;;;;;;;15.95;75.30;100920.34;4934547;28;20531;-86
2021/08/09 06:44:40;;;;;;;2.03;1.20;;;;;;;15.97;75.26;100925.56;4932662;28;20055;-84
2021/08/09 06:47:27;;;;;;;1.33;1.23;;;;;;;16.00;75.19;100925.50;4979148;28;20555;-83
2021/08/09 06:49:54;;;;;;;1.10;0.98;;;;;;;16.09;75.05;100932.28;4951802;28;20050;-87
2021/08/09 06:52:21;;;;;;;6.28;1.50;;;;;;;16.17;74.54;100936.47;4954167;28;20050;-84
2021/08/09 06:54:49;;;;;;;5.57;1.50;;;;;;;16.30;74.13;100933.47;4949738;28;20173;-85
2021/08/09 06:57:17;;;;;;;1.75;0.77;;;;;;;16.38;73.55;100937.63;4952143;28;20050;-83
2021/08/09 06:59:44;;;;;;;2.00;1.08;;;;;;;16.41;73.63;100938.44;4973828;28;20847;-83
2021/08/09 07:02:10;;;;;;;6.05;1.23;;;;;;;16.48;73.38;100940.03;4963706;28;20679;-85
2021/08/09 07:04:37;;;;;;;4.88;1.55;;;;;;;16.56;73.18;100938.00;4987071;28;20060;-85
2021/08/09 07:07:04;;;;;;;1.48;0.98;;;;;;;16.68;72.57;100942.91;4980518;28;20090;-85
2021/08/09 07:09:32;;;;;;;2.17;1.98;;;;;;;16.87;71.96;100945.03;4953594;28;20838;-84
2021/08/09 07:12:04;;;;;;;0.88;0.88;;;;;;;17.11;70.97;100946.06;4967387;28;20061;-87
2021/08/09 07:14:31;;;;;;;3.03;0.77;;;;;;;17.29;69.73;100946.41;4954834;28;20038;-87
2021/08/09 07:17:00;;;;;;;1.40;1.08;;;;;;;17.33;68.81;100940.94;4986093;28;20056;-83
2021/08/09 07:19:26;;;;;;;2.08;0.95;;;;;;;17.39;68.87;100937.25;4969244;28;20058;-85
2021/08/09 07:21:56;;;;;;;3.10;1.20;;;;;;;17.69;68.60;100942.41;4970666;28;20121;-86
2021/08/09 07:24:23;;;;;;;1.67;1.33;;;;;;;18.16;66.02;100941.69;4966916;28;20145;-88
2021/08/09 07:26:50;;;;;;;1.13;0.82;;;;;;;18.52;65.01;100946.56;4953610;28;20835;-86
2021/08/09 07:29:16;;;;;;;1.55;0.70;;;;;;;18.98;63.94;100943.97;4953454;28;20082;-86
2021/08/09 07:31:47;;;;;;;2.78;0.95;;;;;;;19.55;61.37;100935.50;4964174;28;20080;-88
2021/08/09 07:34:14;;;;;;;3.42;1.13;;;;;;;19.99;59.24;100941.59;4953761;28;20050;-84
2021/08/09 07:36:42;;;;;;;2.08;0.77;;;;;;;20.35;58.78;100942.69;4947714;28;20050;-84
2021/08/09 07:39:10;;;;;;;3.00;1.15;;;;;;;20.78;57.26;100931.88;4968252;28;20531;-84
2021/08/09 07:41:37;;;;;;;2.25;1.20;;;;;;;20.88;56.60;100927.84;4967516;28;20498;-84
2021/08/09 07:44:13;;;;;;;1.88;0.73;;;;;;;20.71;55.38;100935.75;4968153;28;20417;-86
2021/08/09 07:46:41;;;;;;;2.03;0.85;;;;;;;20.32;56.43;100934.84;5010445;23;20059;-87
2021/08/09 07:49:07;;;;;;;3.67;0.98;;;;;;;20.33;57.23;100937.41;4967694;28;20043;-85
2021/08/09 07:51:35;;;;;;;3.33;1.45;;;;;;;20.57;56.73;100937.25;4959449;28;20046;-87
2021/08/09 07:54:01;;;;;;;1.02;0.75;;;;;;;20.72;56.53;100946.31;4963944;28;20385;-87
2021/08/09 07:56:28;;;;;;;2.67;1.30;;;;;;;20.72;55.10;100941.00;4958177;28;20055;-87
2021/08/09 07:58:54;;;;;;;2.75;0.70;;;;;;;20.58;56.17;100948.75;4957868;28;20046;-88
2021/08/09 08:01:21;;;;;;;2.78;0.80;;;;;;;20.32;55.58;100933.06;4960121;28;20143;-87
2021/08/09 08:03:50;;;;;;;3.92;0.90;;;;;;;19.93;57.12;100949.84;4952456;28;20058;-85
2021/08/09 08:06:17;;;;;;;2.65;1.42;;;;;;;19.79;57.63;100945.09;4962730;28;20043;-87
2021/08/09 08:08:44;;;;;;;1.40;0.80;;;;;;;19.70;57.98;100953.44;4956695;28;20062;-86
2021/08/09 08:11:11;;;;;;;3.33;1.10;;;;;;;19.61;58.31;100949.38;4958138;28;20054;-86
2021/08/09 08:13:37;;;;;;;3.78;1.63;;;;;;;19.49;58.45;100953.41;4958828;28;20043;-85
2021/08/09 08:16:04;;;;;;;3.45;0.90;;;;;;;19.39;58.28;100951.22;4958497;28;20039;-87
2021/08/09 08:18:31;;;;;;;2.47;0.68;;;;;;;19.32;58.76;100955.88;4942092;28;20046;-86
2021/08/09 08:20:58;;;;;;;2.45;0.85;;;;;;;19.33;58.15;100953.19;4955726;28;21545;-83
2021/08/09 08:23:24;;;;;;;1.80;0.77;;;;;;;19.31;57.58;100951.53;4961976;28;20042;-87
2021/08/09 08:25:52;;;;;;;3.03;0.98;;;;;;;19.30;57.93;100963.06;4959269;28;20061;-86
2021/08/09 08:28:19;;;;;;;5.60;1.10;;;;;;;19.39;57.66;100961.84;4958927;28;20062;-85
2021/08/09 08:30:46;;;;;;;3.10;0.80;;;;;;;19.45;57.54;100966.88;4959930;28;20055;-86
2021/08/09 08:33:13;;;;;;;2.45;0.90;;;;;;;19.49;57.46;100969.34;4959367;28;20153;-87
2021/08/09 08:35:39;;;;;;;3.03;0.98;;;;;;;19.58;57.28;100965.44;4959148;28;20082;-86
2021/08/09 08:38:09;;;;;;;1.95;0.82;;;;;;;19.67;57.00;100974.81;4958551;28;20046;-83
2021/08/09 08:40:48;;;;;;;6.05;0.60;;;;;;;19.88;56.23;100973.09;4958451;28;20081;-86
2021/08/09 08:43:29;;;;;;;1.92;1.00;;;;;;;19.91;56.36;100977.41;4956800;28;20058;-85
2021/08/09 08:45:58;;;;;;;2.83;0.88;;;;;;;19.90;56.33;100983.63;4942413;28;20050;-83
2021/08/09 08:48:28;;;;;;;2.78;1.05;;;;;;;19.81;56.23;100982.19;4943608;28;20070;-85
2021/08/09 08:50:58;;;;;;;3.35;0.95;;;;;;;19.65;56.67;100979.34;4943711;28;20078;-88
2021/08/09 08:53:29;;;;;;;1.38;0.70;;;;;;;19.44;56.85;100975.78;4960067;28;20129;-86
2021/08/09 08:55:57;;;;;;;1.38;0.95;;;;;;;19.42;57.54;100985.59;4940545;28;20061;-87
2021/08/09 08:58:23;;;;;;;2.33;0.65;;;;;;;19.53;57.27;100978.06;4961390;28;20043;-83
2021/08/09 09:00:51;;;;;;;1.25;0.88;;;;;;;19.75;56.53;100979.78;4945713;28;20054;-84
2021/08/09 09:03:21;;;;;;;3.13;1.50;;;;;;;20.01;55.69;100984.03;4944360;28;20047;-82
2021/08/09 09:06:06;;;;;;;2.55;1.48;;;;;;;20.17;54.72;100982.44;4941611;28;20129;-85
2021/08/09 09:08:47;;;;;;;2.95;0.65;;;;;;;20.25;54.39;100984.75;4958689;28;20058;-86
2021/08/09 09:11:23;;;;;;;5.78;1.15;;;;;;;20.44;54.22;100974.19;4972997;28;20055;-87
2021/08/09 09:13:59;;;;;;;2.08;0.65;;;;;;;20.52;53.73;100983.59;4957681;28;20082;-86
2021/08/09 09:16:27;;;;;;;1.08;0.95;;;;;;;20.53;53.20;100986.16;4958556;28;20410;-83
2021/08/09 09:18:58;;;;;;;3.65;1.20;;;;;;;20.20;54.22;100978.78;4957606;28;21437;-86
2021/08/09 09:21:37;;;;;;;1.60;0.95;;;;;;;20.05;54.32;100992.72;4944039;28;20074;-85
2021/08/09 09:24:14;;;;;;;2.28;0.70;;;;;;;19.96;54.76;100989.56;4956703;28;20073;-87
2021/08/09 09:26:47;;;;;;;1.63;1.02;;;;;;;19.94;55.09;100996.72;4957103;28;20525;-86
2021/08/09 09:29:20;;;;;;;1.33;0.73;;;;;;;19.96;54.71;101004.66;4941240;28;20496;-86
2021/08/09 09:31:48;;;;;;;1.70;0.70;;;;;;;20.04;55.00;101009.59;4956269;28;20939;-86
2021/08/09 09:34:19;;;;;;;5.25;1.52;;;;;;;20.00;54.68;101009.75;4943198;28;20169;-84
2021/08/09 09:36:46;;;;;;;1.48;0.98;;;;;;;20.04;54.91;101005.16;4943445;28;20498;-83
2021/08/09 09:39:38;;;;;;;1.83;0.63;;;;;;;20.04;55.01;101010.47;4957164;28;20057;-85
2021/08/09 09:42:11;;;;;;;2.05;1.25;;;;;;;20.10;55.17;101012.00;4955319;28;20109;-87
2021/08/09 09:44:41;;;;;;;11.67;1.33;;;;;;;20.20;55.12;101012.47;4957711;28;20070;-85
2021/08/09 09:47:37;;;;;;;2.10;1.00;;;;;;;20.25;54.75;101013.16;4953129;28;20297;-86
2021/08/09 09:50:04;;;;;;;3.60;0.98;;;;;;;20.13;55.01;101019.88;4943197;28;20050;-87
2021/08/09 09:52:45;;;;;;;2.35;1.15;;;;;;;20.09;55.11;101012.94;4958315;28;20050;-87
2021/08/09 09:55:14;;;;;;;3.28;1.10;;;;;;;20.11;55.00;101013.75;4940639;28;20039;-84
2021/08/09 09:57:44;;;;;;;1.25;0.77;;;;;;;20.13;55.16;101014.53;4948109;28;20051;-85
2021/08/09 10:00:17;;;;;;;3.22;1.00;;;;;;;20.06;55.47;101023.69;4941008;28;20094;-85
2021/08/09 10:02:50;;;;;;;2.22;1.13;;;;;;;19.95;56.11;101009.06;4962054;28;20137;-86
2021/08/09 10:05:17;;;;;;;4.05;1.10;;;;;;;19.88;56.23;101030.66;4976168;28;20054;-85
2021/08/09 10:07:48;;;;;;;1.52;0.90;;;;;;;19.87;56.62;101028.91;4958441;28;20055;-84
2021/08/09 10:10:16;;;;;;;3.20;1.83;;;;;;;19.86;56.50;101024.56;4978366;28;20042;-85
2021/08/09 10:12:48;;;;;;;3.85;1.15;;;;;;;20.01;56.35;101029.19;4964503;28;20054;-84
2021/08/09 10:15:19;;;;;;;2.05;1.10;;;;;;;20.17;56.13;101026.78;4960110;28;20097;-86
2021/08/09 10:17:48;;;;;;;0.98;0.75;;;;;;;20.18;56.10;101023.19;4974442;28;20113;-83
2021/08/09 10:20:18;;;;;;;2.40;0.90;;;;;;;20.35;56.08;101019.78;4966848;28;20046;-84
2021/08/09 10:23:01;;;;;;;2.67;1.33;;;;;;;20.52;55.26;101016.38;4962525;28;20050;-86
2021/08/09 10:25:51;;;;;;;3.58;1.05;;;;;;;20.58;54.60;101017.88;4966229;28;20065;-86
2021/08/09 10:28:19;;;;;;;0.60;0.60;;;;;;;20.57;54.82;101013.50;4975705;28;20054;-84
2021/08/09 10:30:47;;;;;;;4.43;1.10;;;;;;;20.51;55.09;101014.66;4977964;28;20059;-86
2021/08/09 10:33:15;;;;;;;2.33;0.80;;;;;;;20.41;55.54;101024.81;4987473;28;20058;-86
2021/08/09 10:35:48;;;;;;;3.13;1.15;;;;;;;20.43;55.58;101028.28;4998616;28;20108;-83
2021/08/09 10:38:26;;;;;;;2.10;0.93;;;;;;;20.50;55.68;101026.22;4987081;28;20050;-85
2021/08/09 10:41:01;;;;;;;2.70;1.33;;;;;;;20.60;55.39;101026.69;4968755;28;20531;-83
2021/08/09 10:43:29;;;;;;;2.75;1.15;;;;;;;20.67;55.40;101020.97;4982594;28;20232;-84
2021/08/09 10:45:55;;;;;;;3.00;1.30;;;;;;;20.69;55.61;101023.59;4976031;28;20050;-83
2021/08/09 10:48:51;;;;;;;4.50;1.20;;;;;;;20.67;55.47;101028.97;4967658;28;20901;-85
2021/08/09 10:51:17;;;;;;;5.20;1.63;;;;;;;20.71;55.84;101024.41;4969281;28;20055;-89
2021/08/09 10:53:50;;;;;;;6.88;2.55;;;;;;;20.74;55.90;101020.75;4980460;28;20110;-84
2021/08/09 10:56:47;;;;;;;7.27;2.00;;;;;;;20.70;55.94;101021.81;4972002;28;20062;-87
2021/08/09 10:59:57;;;;;;;1.23;0.93;;;;;;;20.72;56.08;101026.13;4970342;28;20484;-84
2021/08/09 11:02:30;;;;;;;3.90;1.25;;;;;;;20.75;55.96;101028.66;4988840;28;20117;-86
2021/08/09 11:05:16;;;;;;;6.15;1.55;;;;;;;20.81;55.58;101020.38;4999435;28;20030;-88
2021/08/09 11:07:48;;;;;;;1.98;1.02;;;;;;;21.01;55.21;101020.41;4989961;28;20085;-87
2021/08/09 11:10:55;;;;;;;1.70;0.93;;;;;;;21.26;54.49;101022.75;4987478;28;20050;-85
2021/08/09 11:13:24;;;;;;;4.15;1.45;;;;;;;21.90;53.20;101017.88;4986757;28;20053;-87
2021/08/09 11:16:04;;;;;;;5.97;1.08;;;;;;;22.23;51.99;101017.97;4985390;28;20133;-86
2021/08/09 11:18:34;;;;;;;4.30;2.22;;;;;;;22.37;51.77;101016.41;4984500;28;20046;-84
2021/08/09 11:21:10;;;;;;;1.88;1.77;;;;;;;22.22;52.10;101012.72;4966511;28;20046;-86
2021/08/09 11:23:43;;;;;;;1.92;1.33;;;;;;;22.02;52.84;101019.06;4976195;28;20067;-86
2021/08/09 11:26:25;;;;;;;2.88;1.90;;;;;;;21.95;52.75;101023.84;4973857;28;20076;-86
2021/08/09 11:29:10;;;;;;;3.72;1.17;;;;;;;21.93;52.33;101015.94;4970192;28;20096;-84
2021/08/09 11:31:50;;;;;;;2.33;1.23;;;;;;;22.22;51.92;101010.91;4970082;28;20138;-88
2021/08/09 11:34:16;;;;;;;1.05;1.00;;;;;;;22.42;51.26;101009.91;4984411;28;20046;-88
2021/08/09 11:36:44;;;;;;;4.70;1.38;;;;;;;22.72;50.22;101019.00;4983090;28;20151;-87
2021/08/09 11:39:11;;;;;;;2.10;1.33;;;;;;;22.92;49.94;101009.91;4968911;28;20042;-87